• Join FlightAware (Why Join?)
  • Login
  • US Flag 
05:36AM EST


 

Airport Tracker/Info


-or-


 

Live Flight TrackerFlight Track Log ✈ EJA848 ✈ 11-Sep-2013 ✈ KTEB - TJSJ / SJU

Flight Track Log - Related Links

Times and Time Zones

All times are in EDT time to prevent confusion due to time zone crossing. See the EJA848 flight status page for this flight to view local times or setup timezone preferences in your user account.

Time Position Orientation Groundspeed Altitude Reporting Facility
EDT Latitude Longitude Course Direction KTS MPH feet Rate Location/Type
08:09PM 40.8267 -74.1167 259° West 178 205 1,500  Level New York Center
08:10PM 40.8167 -74.1833 259° West 191 220 1,800 960 Climbing New York TRACON
08:11PM 40.7833 -74.2500 237° Southwest 228 262 3,500 1,560 Climbing New York TRACON
08:12PM 40.7667 -74.3333 255° West 258 297 5,000 2,640 Climbing New York TRACON
08:13PM 40.7000 -74.3500 191° South 266 306 8,600 2,760 Climbing New York TRACON
08:15PM 40.5358 -74.3047 168° South 311 358 13,700 2,400 Climbing New York Center
08:16PM 40.4306 -74.2719 167° South 342 394 16,200 2,220 Climbing New York Center
08:17PM 40.3417 -74.2428 166° South 367 422 18,200 1,800 Climbing New York Center
08:18PM 40.2617 -74.1300 133° Southeast 372 428 19,900 1,680 Climbing New York Center
08:19PM 40.2197 -73.9894 111° Southeast 367 422 21,600 1,500 Climbing New York Center
08:20PM 40.1436 -73.8744 131° Southeast 398 458 22,900 780 Climbing New York Center
08:21PM 40.0706 -73.8033 143° Southeast 403 464 23,200 1,080 Climbing New York Center
08:22PM 39.9544 -73.6956 145° Southeast 420 483 25,100 1,680 Climbing New York Center
08:23PM 39.8586 -73.6047 144° Southeast 426 490 26,600 1,500 Climbing New York Center
08:24PM 39.7669 -73.5200 145° Southeast 426 490 28,200 1,200 Climbing New York Center
08:25PM 39.6894 -73.4469 144° Southeast 421 484 29,000 1,140 Climbing New York Center
08:26PM 39.5853 -73.3542 146° Southeast 421 484 30,500 1,620 Climbing New York Center
08:27PM 39.4811 -73.2561 144° Southeast 421 484 32,300 1,440 Climbing New York Center
08:28PM 39.3869 -73.1667 144° Southeast 421 484 33,400 1,140 Climbing New York Center
08:29PM 39.2950 -73.0778 143° Southeast 421 484 34,600 780 Climbing New York Center
08:30PM 39.1967 -72.9942 147° Southeast 421 484 35,000 180 Climbing New York Center
08:31PM 39.0942 -72.8947 143° Southeast 433 498 35,000  Level New York Center
08:32PM 38.9917 -72.8008 145° Southeast 452 520 35,000  Level New York Center
08:33PM 38.8847 -72.7044 145° Southeast 458 527 35,000  Level New York Center
08:34PM 38.7800 -72.6108 145° Southeast 464 534 35,000  Level New York Center
08:35PM 38.6731 -72.5122 144° Southeast 464 534 35,000  Level New York Center
08:36PM 38.5681 -72.4169 145° Southeast 464 534 35,000  Level New York Center
08:37PM 38.4653 -72.3217 144° Southeast 464 534 35,000  Level New York Center
08:38PM 38.3600 -72.2239 144° Southeast 463 533 35,000 180 Level New York Center
08:39PM 38.2567 -72.1453 149° Southeast 463 533 35,400 600 Climbing New York Center
08:40PM 38.1558 -72.0428 141° Southeast 458 527 36,200 720 Climbing New York Center
08:41PM 38.0544 -71.9567 146° Southeast 453 521 36,900 360 Climbing New York Center
08:42PM 37.9489 -71.8706 147° Southeast 453 521 37,000  Climbing New York Center
08:43PM 37.8497 -71.7744 143° Southeast 447 514 37,000  Level New York Center
08:44PM 37.7503 -71.6889 146° Southeast 447 514 37,000  Level New York Center
08:45PM 37.6489 -71.5983 145° Southeast 441 507 37,000  Level New York Center
08:46PM 37.5494 -71.5108 145° Southeast 441 507 37,000  Level New York Center
08:47PM 37.4475 -71.4364 150° Southeast 441 507 37,000  Level New York Center
08:48PM 37.3497 -71.3886 159° South 424 488 37,000  Level New York Center
08:49PM 37.2292 -71.3067 152° Southeast 433 498 37,000  Level New York Center
08:51PM 37.0692 -71.1971 153° Southeast  Level FlightAware Approximate
08:58PM 36.3238 -70.7692 155° Southeast  Level FlightAware Approximate
08:59PM 36.2178 -70.7068 155° Southeast  Level FlightAware Approximate
09:00PM 36.1119 -70.6445 155° Southeast  Level FlightAware Approximate
09:01PM 36.0059 -70.5825 155° Southeast  Level FlightAware Approximate
09:02PM 35.8999 -70.5206 155° Southeast  Level FlightAware Approximate
09:03PM 35.7938 -70.4588 155° Southeast  Level FlightAware Approximate
09:03PM 35.7667 -70.4500 168° South 429 494 37,000  Level New York Oceanic (ODAPS)
09:04PM 35.6827 -70.4158 168° South  Level FlightAware Approximate
09:05PM 35.5680 -70.3860 168° South  Level FlightAware Approximate
09:06PM 35.4532 -70.3562 168° South  Level FlightAware Approximate
09:07PM 35.3385 -70.3266 168° South  Level FlightAware Approximate
09:08PM 35.2237 -70.2970 168° South  Level FlightAware Approximate
09:09PM 34.9448 -70.2347 168° South 429 494 37,000  Level FlightAware Transoceanic
09:10PM 34.8274 -70.2043 168° South 429 494 37,000  Level FlightAware Transoceanic
09:11PM 34.7099 -70.1740 168° South 429 494 37,000  Level FlightAware Transoceanic
09:12PM 34.5925 -70.1437 168° South 429 494 37,000  Level FlightAware Transoceanic
09:13PM 34.4750 -70.1136 168° South 429 494 37,000  Level FlightAware Transoceanic
09:14PM 34.3575 -70.0835 168° South 429 494 37,000  Level FlightAware Transoceanic
09:15PM 34.2401 -70.0535 168° South 429 494 37,000  Level FlightAware Transoceanic
09:16PM 34.1226 -70.0236 168° South 429 494 37,000  Level FlightAware Transoceanic
09:17PM 34.0051 -69.9938 168° South 429 494 37,000  Level FlightAware Transoceanic
09:18PM 33.8876 -69.9641 168° South 429 494 37,000  Level FlightAware Transoceanic
09:19PM 33.7701 -69.9344 168° South 429 494 37,000  Level FlightAware Transoceanic
09:20PM 33.6526 -69.9049 168° South 429 494 37,000  Level FlightAware Transoceanic
09:21PM 33.5351 -69.8754 168° South 429 494 37,000  Level FlightAware Transoceanic
09:22PM 33.4175 -69.8460 168° South 429 494 37,000  Level FlightAware Transoceanic
09:23PM 33.3000 -69.8167 168° South 429 494 37,000  Level FlightAware Transoceanic
09:24PM 33.1801 -69.7868 168° South 429 494 37,000  Level FlightAware Transoceanic
09:24PM 33.3000 -69.8167 168° South 419 482 37,000  Level New York Oceanic (ODAPS)
09:25PM 33.0601 -69.7569 168° South 429 494 37,000  Level FlightAware Transoceanic
09:26PM 32.9402 -69.7272 168° South 429 494 37,000  Level FlightAware Transoceanic
09:27PM 32.8202 -69.6975 168° South 429 494 37,000  Level FlightAware Transoceanic
09:28PM 32.7002 -69.6679 168° South 429 494 37,000  Level FlightAware Transoceanic
09:29PM 32.5803 -69.6384 168° South 429 494 37,000  Level FlightAware Transoceanic
09:30PM 32.5003 -69.6188 168° South 419 482 37,000  Level FlightAware Transoceanic
09:31PM 32.3860 -69.5908 168° South 419 482 37,000  Level FlightAware Transoceanic
09:32PM 32.2718 -69.5629 168° South 419 482 37,000  Level FlightAware Transoceanic
09:33PM 32.1575 -69.5351 168° South 419 482 37,000  Level FlightAware Transoceanic
09:34PM 32.0432 -69.5073 168° South 419 482 37,000  Level FlightAware Transoceanic
09:35PM 31.9289 -69.4796 168° South 419 482 37,000  Level FlightAware Transoceanic
09:36PM 31.8146 -69.4520 168° South 419 482 37,000  Level FlightAware Transoceanic
09:37PM 31.7003 -69.4244 168° South 419 482 37,000  Level FlightAware Transoceanic
09:38PM 31.5860 -69.3969 168° South 419 482 37,000  Level FlightAware Transoceanic
09:39PM 31.4717 -69.3695 168° South 419 482 37,000  Level FlightAware Transoceanic
09:40PM 31.3573 -69.3421 168° South 419 482 37,000  Level FlightAware Transoceanic
09:41PM 31.2430 -69.3148 168° South 419 482 37,000  Level FlightAware Transoceanic
09:42PM 31.1287 -69.2876 168° South 419 482 37,000  Level FlightAware Transoceanic
09:43PM 31.0144 -69.2604 169° South 419 482 37,000  Level FlightAware Transoceanic
09:44PM 30.9000 -69.2333 168° South 419 482 37,000  Level FlightAware Transoceanic
09:44PM 30.9000 -69.2333 168° South 451 519 37,000  Level New York Oceanic (ODAPS)
09:45PM 30.7841 -69.2057 168° South 419 482 37,000  Level FlightAware Transoceanic
09:46PM 30.6683 -69.1781 168° South 419 482 37,000  Level FlightAware Transoceanic
09:47PM 30.5524 -69.1507 168° South 419 482 37,000  Level FlightAware Transoceanic
09:48PM 30.4366 -69.1232 168° South 419 482 37,000  Level FlightAware Transoceanic
09:49PM 30.3207 -69.0959 168° South 419 482 37,000  Level FlightAware Transoceanic
09:50PM 30.2048 -69.0686 169° South 419 482 37,000  Level FlightAware Transoceanic
09:51PM 30.0787 -69.0389 169° South 451 519 37,000  Level FlightAware Transoceanic
09:51PM 30.9000 -69.2333 168° South 451 519 37,000  Level New York Oceanic (ODAPS)
09:52PM 29.9613 -69.0114 169° South 451 519 37,000  Level FlightAware Transoceanic
09:53PM 29.8440 -68.9840 169° South 451 519 37,000  Level FlightAware Transoceanic
09:54PM 29.7266 -68.9566 169° South 451 519 37,000  Level FlightAware Transoceanic
09:55PM 29.6092 -68.9293 169° South 451 519 37,000  Level FlightAware Transoceanic
09:56PM 29.4918 -68.9020 169° South 451 519 37,000  Level FlightAware Transoceanic
09:57PM 29.3745 -68.8749 169° South 451 519 37,000  Level FlightAware Transoceanic
09:58PM 29.2571 -68.8477 169° South 451 519 37,000  Level FlightAware Transoceanic
09:59PM 29.1397 -68.8207 169° South 451 519 37,000  Level FlightAware Transoceanic
10:00PM 29.0223 -68.7937 169° South 451 519 37,000  Level FlightAware Transoceanic
10:01PM 28.9049 -68.7667 169° South 451 519 37,000  Level FlightAware Transoceanic
10:02PM 28.7875 -68.7399 169° South 451 519 37,000  Level FlightAware Transoceanic
10:03PM 28.6700 -68.7131 169° South 451 519 37,000  Level FlightAware Transoceanic
10:04PM 28.5526 -68.6863 169° South 451 519 37,000  Level FlightAware Transoceanic
10:05PM 28.4352 -68.6596 169° South 451 519 37,000  Level FlightAware Transoceanic
10:06PM 28.3178 -68.6329 169° South 451 519 37,000  Level FlightAware Transoceanic
10:07PM 28.2003 -68.6064 169° South 451 519 37,000  Level FlightAware Transoceanic
10:08PM 28.0829 -68.5798 169° South 451 519 37,000  Level FlightAware Transoceanic
10:09PM 27.9654 -68.5534 169° South 451 519 37,000  Level FlightAware Transoceanic
10:09PM 27.9333 -68.5333 169° South 429 494 37,000  Level New York Oceanic (ODAPS)
10:10PM 27.8480 -68.5270 169° South 451 519 37,000  Level FlightAware Transoceanic
10:11PM 27.7305 -68.5006 169° South 451 519 37,000  Level FlightAware Transoceanic
10:12PM 27.6131 -68.4743 169° South 451 519 37,000  Level FlightAware Transoceanic
10:13PM 27.4956 -68.4481 169° South 451 519 37,000  Level FlightAware Transoceanic
10:14PM 27.3781 -68.4219 169° South 451 519 37,000  Level FlightAware Transoceanic
10:15PM 27.2607 -68.3958 169° South 451 519 37,000  Level FlightAware Transoceanic
10:16PM 27.1152 -68.3524 169° South 429 494 37,000  Level FlightAware Transoceanic
10:17PM 26.9983 -68.3268 169° South 429 494 37,000  Level FlightAware Transoceanic
10:18PM 26.8814 -68.3013 169° South 429 494 37,000  Level FlightAware Transoceanic
10:19PM 26.7645 -68.2757 169° South 429 494 37,000  Level FlightAware Transoceanic
10:20PM 26.6476 -68.2503 169° South 429 494 37,000  Level FlightAware Transoceanic
10:21PM 26.5307 -68.2249 169° South 429 494 37,000  Level FlightAware Transoceanic
10:22PM 26.4138 -68.1995 169° South 429 494 37,000  Level FlightAware Transoceanic
10:23PM 26.2969 -68.1742 169° South 429 494 37,000  Level FlightAware Transoceanic
10:24PM 26.1799 -68.1489 169° South 429 494 37,000  Level FlightAware Transoceanic
10:25PM 26.0630 -68.1237 169° South 429 494 37,000  Level FlightAware Transoceanic
10:26PM 25.9461 -68.0986 169° South 429 494 37,000  Level FlightAware Transoceanic
10:27PM 25.8291 -68.0735 169° South 429 494 37,000  Level FlightAware Transoceanic
10:28PM 25.7122 -68.0484 169° South 429 494 37,000  Level FlightAware Transoceanic
10:29PM 25.5952 -68.0234 169° South 429 494 37,000  Level FlightAware Transoceanic
10:30PM 25.4783 -67.9984 169° South 429 494 37,000  Level FlightAware Transoceanic
10:31PM 25.3613 -67.9735 169° South 429 494 37,000  Level FlightAware Transoceanic
10:31PM 25.4667 -68.0000 169° South 408 470 37,000  Level New York Oceanic (ODAPS)
10:32PM 25.2444 -67.9487 169° South 429 494 37,000  Level FlightAware Transoceanic
10:33PM 25.1274 -67.9239 169° South 429 494 37,000  Level FlightAware Transoceanic
10:34PM 25.0104 -67.8991 169° South 429 494 37,000  Level FlightAware Transoceanic
10:35PM 24.8934 -67.8744 169° South 429 494 37,000  Level FlightAware Transoceanic
10:36PM 24.7765 -67.8497 169° South 429 494 37,000  Level FlightAware Transoceanic
10:37PM 24.6744 -67.8314 169° South 408 470 37,000  Level FlightAware Transoceanic
10:38PM 24.5612 -67.8075 169° South 408 470 37,000  Level FlightAware Transoceanic
10:39PM 24.4480 -67.7836 169° South 408 470 37,000  Level FlightAware Transoceanic
10:40PM 24.3347 -67.7598 169° South 408 470 37,000  Level FlightAware Transoceanic
10:41PM 24.2215 -67.7360 169° South 408 470 37,000  Level FlightAware Transoceanic
10:42PM 24.1083 -67.7122 169° South 408 470 37,000  Level FlightAware Transoceanic
10:43PM 23.9951 -67.6885 169° South 408 470 37,000  Level FlightAware Transoceanic
10:44PM 23.8819 -67.6649 169° South 408 470 37,000  Level FlightAware Transoceanic
10:45PM 23.7686 -67.6413 169° South 408 470 37,000  Level FlightAware Transoceanic
10:46PM 23.6554 -67.6177 169° South 408 470 37,000  Level FlightAware Transoceanic
10:47PM 23.5422 -67.5941 169° South 408 470 37,000  Level FlightAware Transoceanic
10:48PM 23.4289 -67.5706 169° South 408 470 37,000  Level FlightAware Transoceanic
10:48PM 23.4500 -67.5667 169° South 410 472 37,000  Level San Juan Center
10:49PM 23.3157 -67.5472 169° South 408 470 37,000  Level FlightAware Transoceanic
10:49PM 23.3333 -67.5500 173° South 410 472 37,000  Level San Juan Center
10:50PM 23.2024 -67.5238 169° South 408 470 37,000  Level FlightAware Transoceanic
10:50PM 23.2333 -67.5167 163° South 400 460 37,000  Level San Juan Center
10:51PM 23.0892 -67.5004 169° South 408 470 37,000  Level FlightAware Transoceanic
10:52PM 22.9760 -67.4771 169° South 408 470 37,000  Level FlightAware Transoceanic
10:52PM 23.1167 -67.5000 173° South 410 472 37,000  Level San Juan Center
10:53PM 22.8627 -67.4538 169° South 408 470 37,000  Level FlightAware Transoceanic
10:53PM 23.0000 -67.4833 173° South 410 472 37,000  Level San Juan Center
10:54PM 22.7494 -67.4305 169° South 408 470 37,000  Level FlightAware Transoceanic
10:54PM 22.8833 -67.4500 165° South 400 460 37,000  Level San Juan Center
10:55PM 22.7833 -67.4333 171° South 410 472 37,000  Level San Juan Center
10:56PM 22.6667 -67.4000 165° South 400 460 37,000  Level San Juan Center
10:57PM 22.5667 -67.3833 171° South 400 460 37,000  Level San Juan Center
10:58PM 22.4500 -67.3667 172° South 400 460 37,000  Level San Juan Center
10:59PM 22.3333 -67.3333 165° South 410 472 37,000  Level San Juan Center
11:00PM 22.2333 -67.3167 171° South 420 483 37,000  Level San Juan Center
11:01PM 22.1167 -67.3000 172° South 420 483 37,000  Level San Juan Center
11:01PM 22.2333 -67.3167 170° South 369 425 37,000  Level New York Oceanic (ODAPS)
11:02PM 22.0000 -67.2667 170° South 420 483 37,000  Level San Juan Center
11:03PM 21.8833 -67.2500 172° South 420 483 37,000  Level San Juan Center
11:04PM 21.7667 -67.2167 165° South 430 495 37,000  Level San Juan Center
11:05PM 21.6500 -67.2000 172° South 420 483 37,000  Level San Juan Center
11:06PM 21.5333 -67.1833 172° South 420 483 37,000  Level San Juan Center
11:07PM 21.4333 -67.1667 171° South 410 472 37,000  Level San Juan Center
11:08PM 21.3167 -67.1333 165° South 410 472 37,000  Level San Juan Center
11:09PM 21.2000 -67.1167 172° South 400 460 37,000  Level San Juan Center
11:10PM 21.1000 -67.0667 155° Southeast 410 472 37,000  Level San Juan Center
11:11PM 20.9833 -67.0333 165° South 410 472 37,000  Level San Juan Center
11:12PM 20.8500 -67.0000 167° South 410 472 37,000  Level San Juan Center
11:13PM 20.7500 -66.9500 155° Southeast 420 483 37,000  Level San Juan Center
11:14PM 20.6333 -66.9167 165° South 420 483 37,000 -60 Level San Juan Center
11:15PM 20.5167 -66.8833 165° South 420 483 36,900 -960 Descending San Juan Center
11:16PM 20.4167 -66.8500 163° South 420 483 35,100 -1,800 Descending San Juan Center
11:17PM 20.3000 -66.8000 158° South 430 495 33,400 -1,860 Descending San Juan Center
11:18PM 20.1833 -66.7667 165° South 440 506 31,400 -2,040 Descending San Juan Center
11:19PM 20.0667 -66.7333 165° South 450 518 29,400 -2,040 Descending San Juan Center
11:20PM 19.9500 -66.6833 158° South 440 506 27,400 -2,040 Descending San Juan Center
11:21PM 19.8333 -66.6500 165° South 440 506 25,400 -1,920 Descending San Juan Center
11:22PM 19.7167 -66.6167 165° South 440 506 23,600 -1,860 Descending San Juan Center
11:23PM 19.6000 -66.5833 165° South 430 495 21,700 -1,980 Descending San Juan Center
11:24PM 19.4833 -66.5333 158° South 420 483 19,700 -1,980 Descending San Juan Center
11:25PM 19.3667 -66.5000 165° South 410 472 17,800 -1,800 Descending San Juan Center
11:26PM 19.2667 -66.4667 163° South 400 460 16,100 -1,800 Descending San Juan Center
11:27PM 19.1667 -66.4333 163° South 390 449 14,300 -1,740 Descending San Juan Center
11:28PM 19.0667 -66.4000 163° South 360 414 12,600 -1,500 Descending San Juan Center
11:29PM 18.9833 -66.3667 159° South 320 368 11,300 -1,320 Descending San Juan Center
11:30PM 18.9000 -66.3500 169° South 290 334 10,000 -1,320 Descending San Juan Center
11:31PM 18.8167 -66.3167 159° South 290 334 8,700 -1,320 Descending San Juan Center
11:32PM 18.7333 -66.3000 169° South 290 334 7,400 -1,320 Descending San Juan Center
11:33PM 18.6667 -66.3000 180° South 280 322 6,100 -1,200 Descending San Juan Center
11:34PM 18.5833 -66.2667 159° South 270 311 5,000 -1,140 Descending San Juan Center
11:35PM 18.5333 -66.2333 148° Southeast 260 299 3,900 -1,200 Descending San Juan Center
11:36PM 18.4500 -66.2000 159° South 260 299 2,700 -960 Descending San Juan Center
11:37PM 18.4333 -66.1500 109° East 210 242 2,000 -480 Descending San Juan Center
11:38PM 18.4333 -66.1000 90° East 150 173 1,800 -480 Descending San Juan Center
11:39PM 18.4333 -66.0667 90° East 130 150 1,100 -660 Descending San Juan Center
11:40PM 18.4333 -66.0333 90° East 130 150 500 -600 Descending San Juan Center